Flight Track Log - Related Links

Times and Time Zones

All times are in EDT time to prevent confusion due to time zone crossing. See the CCA1389 flight status page for this flight to view local times or setup timezone preferences in your user account.

Time Position Orientation Groundspeed Altitude Reporting Facility
EDT Latitude Longitude Course Direction KTS MPH feet Rate Location/Type
Thu 10:49:06 PM 39.1290 117.3433 335° Northwest 167 192 300  Level FlightAware ADS-B
Thu 10:49:21 PM 39.1395 117.3368 335° Northwest 164 189 1,100 3,310 Climbing FlightAware ADS-B
Thu 10:49:35 PM 39.1502 117.3306 336° Northwest 165 190 1,900 3,158 Climbing FlightAware ADS-B
Thu 10:49:40 PM 39.1536 117.3283 331° Northwest 162 186 2,100 2,400 Climbing FlightAware ADS-B
Thu 10:49:45 PM 39.1566 117.3254 319° Northwest 167 192 2,300 1,800 Climbing FlightAware ADS-B
Thu 10:49:50 PM 39.1594 117.3213 307° West 178 205 2,400 600 Climbing FlightAware ADS-B
Thu 10:49:55 PM 39.1615 117.3166 295° West 192 221 2,400 545 Level FlightAware ADS-B
Thu 10:50:01 PM 39.1629 117.3107 285° West 205 236 2,500 1,200 Climbing FlightAware ADS-B
Thu 10:50:05 PM 39.1636 117.3044 276° West 216 249 2,600 1,200 Climbing FlightAware ADS-B
Thu 10:50:11 PM 39.1635 117.2983 267° West 226 260 2,700 1,636 Climbing FlightAware ADS-B
Thu 10:50:16 PM 39.1627 117.2918 258° West 231 266 2,900 3,333 Climbing FlightAware ADS-B
Thu 10:50:20 PM 39.1604 117.2842 248° West 235 270 3,200 3,333 Climbing FlightAware ADS-B
Thu 10:50:25 PM 39.1578 117.2786 239° Southwest 240 276 3,400 2,400 Climbing FlightAware ADS-B
Thu 10:50:30 PM 39.1541 117.2727 230° Southwest 242 278 3,600 2,727 Climbing FlightAware ADS-B
Thu 10:50:36 PM 39.1496 117.2676 221° Southwest 243 280 3,900 3,600 Climbing FlightAware ADS-B
Thu 10:50:50 PM 39.1348 117.2571 208° Southwest 254 292 4,800 3,882 Climbing FlightAware ADS-B
Thu 10:51:10 PM 39.1149 117.2418 211° Southwest 246 283 6,100 3,706 Climbing FlightAware ADS-B
Thu 10:51:24 PM 39.1009 117.2322 209° Southwest 248 285 6,900 3,724 Climbing FlightAware ADS-B
Thu 10:51:39 PM 39.0860 117.2220 209° Southwest 244 281 7,900 4,000 Climbing FlightAware ADS-B
Thu 10:51:54 PM 39.0712 117.2119 208° Southwest 239 275 8,900 3,778 Climbing FlightAware ADS-B
Thu 10:52:06 PM 39.0596 117.2043 207° Southwest 240 276 9,600 3,500 Climbing FlightAware ADS-B
Thu 10:54:00 PM 38.8734 117.2804 162° South  Level Estimated
Thu 10:55:00 PM 38.7754 117.3204 162° South  Level Estimated
Thu 10:56:00 PM 38.6774 117.3602 162° South  Level Estimated
Thu 10:57:00 PM 38.5794 117.3999 162° South  Level Estimated
Thu 10:58:00 PM 38.4814 117.4395 162° South  Level Estimated
Thu 10:59:00 PM 38.3833 117.4790 162° South  Level Estimated
Thu 11:00:00 PM 38.2641 117.5269 162° South  Level Estimated
Thu 11:01:00 PM 38.1448 117.5747 163° South  Level Estimated
Thu 11:02:00 PM 38.0255 117.6222 163° South  Level Estimated
Thu 11:03:00 PM 37.9062 117.6697 163° South  Level Estimated
Thu 11:04:00 PM 37.7868 117.7169 163° South  Level Estimated
Thu 11:05:00 PM 37.6675 117.7641 163° South  Level Estimated
Thu 11:06:00 PM 37.5481 117.8110 163° South  Level Estimated
Thu 11:07:00 PM 37.4287 117.8578 163° South  Level Estimated
Thu 11:08:00 PM 37.3093 117.9045 163° South  Level Estimated
Thu 11:09:00 PM 37.1899 117.9510 163° South  Level Estimated
Thu 11:10:00 PM 37.0704 117.9974 163° South  Level Estimated
Thu 11:11:00 PM 36.9510 118.0436 163° South  Level Estimated
Thu 11:12:00 PM 36.8315 118.0897 163° South  Level Estimated
Thu 11:13:00 PM 36.7120 118.1357 163° South  Level Estimated
Thu 11:14:00 PM 36.5924 118.1814 163° South  Level Estimated
Thu 11:15:00 PM 36.4729 118.2271 163° South  Level Estimated
Thu 11:16:00 PM 36.3534 118.2726 163° South  Level Estimated
Thu 11:17:00 PM 36.2338 118.3180 163° South  Level Estimated
Thu 11:18:00 PM 36.1142 118.3632 163° South  Level Estimated
Thu 11:19:00 PM 35.9946 118.4083 163° South  Level Estimated
Thu 11:20:00 PM 35.8750 118.4533 163° South  Level Estimated
Thu 11:21:00 PM 35.7553 118.4981 163° South  Level Estimated
Thu 11:22:00 PM 35.6357 118.5428 163° South  Level Estimated
Thu 11:23:00 PM 35.5160 118.5874 163° South  Level Estimated
Thu 11:24:00 PM 35.3963 118.6318 163° South  Level Estimated
Thu 11:25:00 PM 35.2766 118.6761 163° South  Level Estimated
Thu 11:26:00 PM 35.1569 118.7203 163° South  Level Estimated
Thu 11:27:00 PM 35.0372 118.7643 163° South  Level Estimated
Thu 11:28:00 PM 34.9174 118.8082 163° South  Level Estimated
Thu 11:29:00 PM 34.7976 118.8520 163° South  Level Estimated
Thu 11:30:00 PM 34.6778 118.8956 163° South  Level Estimated
Thu 11:31:00 PM 34.5580 118.9391 163° South  Level Estimated
Thu 11:32:00 PM 34.4382 118.9826 163° South  Level Estimated
Thu 11:33:00 PM 34.3184 119.0258 163° South  Level Estimated
Thu 11:34:00 PM 34.1986 119.0690 163° South  Level Estimated
Thu 11:35:00 PM 34.0787 119.1120 163° South  Level Estimated
Thu 11:36:00 PM 33.9588 119.1549 163° South  Level Estimated
Thu 11:37:00 PM 33.8389 119.1977 163° South  Level Estimated
Thu 11:38:00 PM 33.7190 119.2404 164° South  Level Estimated
Thu 11:39:00 PM 33.5991 119.2829 164° South  Level Estimated
Thu 11:40:00 PM 33.4792 119.3253 164° South  Level Estimated
Thu 11:41:00 PM 33.3592 119.3677 164° South  Level Estimated
Thu 11:42:00 PM 33.2393 119.4098 164° South  Level Estimated
Thu 11:43:00 PM 33.1193 119.4519 164° South  Level Estimated
Thu 11:44:00 PM 32.9993 119.4939 164° South  Level Estimated
Thu 11:45:00 PM 32.8793 119.5357 164° South  Level Estimated
Thu 11:46:00 PM 32.7593 119.5775 164° South  Level Estimated
Thu 11:47:00 PM 32.6392 119.6191 164° South  Level Estimated
Thu 11:48:00 PM 32.5192 119.6606 164° South  Level Estimated
Thu 11:49:00 PM 32.3991 119.7020 164° South  Level Estimated
Thu 11:50:00 PM 32.2791 119.7433 164° South  Level Estimated
Thu 11:51:00 PM 32.1590 119.7845 164° South  Level Estimated
Thu 11:52:00 PM 32.0389 119.8256 164° South  Level Estimated
Thu 11:53:00 PM 31.9188 119.8665 164° South  Level Estimated
Thu 11:54:00 PM 31.7986 119.9074 164° South  Level Estimated
Thu 11:55:00 PM 31.6785 119.9482 164° South  Level Estimated
Thu 11:56:00 PM 31.5583 119.9888 164° South  Level Estimated
Thu 11:57:00 PM 31.4382 120.0294 164° South  Level Estimated
Thu 11:58:00 PM 31.3180 120.0698 164° South  Level Estimated
Thu 11:59:00 PM 31.1978 120.1101 164° South  Level Estimated
Fri 12:00:00 AM 31.0776 120.1504 164° South  Level Estimated
Fri 12:01:00 AM 30.9574 120.1905 164° South  Level Estimated
Fri 12:02:00 AM 30.8372 120.2305 164° South  Level Estimated
Fri 12:03:00 AM 30.7169 120.2705 164° South  Level Estimated
Fri 12:04:00 AM 30.5967 120.3103 164° South  Level Estimated
Fri 12:05:00 AM 30.4764 120.3500 164° South  Level Estimated
Fri 12:06:00 AM 30.3561 120.3897 164° South  Level Estimated
Fri 12:07:00 AM 30.2358 120.4292 164° South  Level Estimated
Fri 12:08:00 AM 30.2283 120.4317 164° South  Level Estimated
Fri 12:09:00 AM 30.2283 120.4317 North  Level Estimated
Fri 12:10:00 AM 30.2283 120.4317 North  Level Estimated
Fri 12:11:00 AM 30.2283 120.4317 North  Level Estimated
Fri 12:12:00 AM 30.2283 120.4317 North  Level Estimated
Fri 12:13:00 AM 30.2283 120.4317 North  Level Estimated
Fri 12:14:00 AM 30.2283 120.4317 North  Level Estimated
Fri 12:15:00 AM 30.2283 120.4317 North  Level Estimated
Fri 12:16:00 AM 30.2283 120.4317 North  Level Estimated
Fri 12:17:00 AM 30.2283 120.4317 North  Level Estimated
Fri 12:18:00 AM 30.2283 120.4317 North  Level Estimated

Login

Don't have an account? Register now (free) for customized features, flight alerts, and more!